sensor_id;sensor_type;location;lat;lon;timestamp;P1;durP1;ratioP1;P2;durP2;ratioP2
6422;SDS011;3244;42.708;23.288;2022-12-29T00:02:26;15.35;;;12.68;;
6422;SDS011;3244;42.708;23.288;2022-12-29T00:04:52;16.48;;;13.50;;
6422;SDS011;3244;42.708;23.288;2022-12-29T00:07:19;19.27;;;13.00;;
6422;SDS011;3244;42.708;23.288;2022-12-29T00:09:46;20.13;;;13.50;;
6422;SDS011;3244;42.708;23.288;2022-12-29T00:12:13;20.42;;;15.00;;
6422;SDS011;3244;42.708;23.288;2022-12-29T00:14:41;18.52;;;13.88;;
6422;SDS011;3244;42.708;23.288;2022-12-29T00:17:25;18.95;;;14.77;;
6422;SDS011;3244;42.708;23.288;2022-12-29T00:19:52;18.70;;;14.23;;
6422;SDS011;3244;42.708;23.288;2022-12-29T00:22:36;17.42;;;13.23;;
6422;SDS011;3244;42.708;23.288;2022-12-29T00:25:20;19.27;;;13.48;;
6422;SDS011;3244;42.708;23.288;2022-12-29T00:28:06;21.48;;;14.18;;
6422;SDS011;3244;42.708;23.288;2022-12-29T00:30:53;25.67;;;15.18;;
6422;SDS011;3244;42.708;23.288;2022-12-29T00:33:37;17.35;;;14.35;;
6422;SDS011;3244;42.708;23.288;2022-12-29T00:36:21;21.95;;;13.82;;
6422;SDS011;3244;42.708;23.288;2022-12-29T00:38:52;17.55;;;13.55;;
6422;SDS011;3244;42.708;23.288;2022-12-29T00:41:40;19.65;;;13.32;;
6422;SDS011;3244;42.708;23.288;2022-12-29T00:44:24;17.95;;;13.45;;
6422;SDS011;3244;42.708;23.288;2022-12-29T00:46:52;17.73;;;14.00;;
6422;SDS011;3244;42.708;23.288;2022-12-29T00:49:19;15.75;;;13.00;;
6422;SDS011;3244;42.708;23.288;2022-12-29T00:51:58;19.67;;;14.48;;
6422;SDS011;3244;42.708;23.288;2022-12-29T00:54:27;23.73;;;14.13;;
6422;SDS011;3244;42.708;23.288;2022-12-29T00:56:55;20.85;;;14.43;;
6422;SDS011;3244;42.708;23.288;2022-12-29T00:59:22;20.52;;;14.18;;
6422;SDS011;3244;42.708;23.288;2022-12-29T01:01:50;23.70;;;14.40;;
6422;SDS011;3244;42.708;23.288;2022-12-29T01:04:19;17.17;;;13.13;;
6422;SDS011;3244;42.708;23.288;2022-12-29T01:06:46;19.67;;;13.65;;
6422;SDS011;3244;42.708;23.288;2022-12-29T01:09:13;20.55;;;14.07;;
6422;SDS011;3244;42.708;23.288;2022-12-29T01:11:58;21.08;;;14.57;;
6422;SDS011;3244;42.708;23.288;2022-12-29T01:14:25;21.88;;;15.15;;
6422;SDS011;3244;42.708;23.288;2022-12-29T01:16:52;23.90;;;14.63;;
6422;SDS011;3244;42.708;23.288;2022-12-29T01:19:22;23.88;;;16.67;;
6422;SDS011;3244;42.708;23.288;2022-12-29T01:21:49;20.90;;;16.02;;
6422;SDS011;3244;42.708;23.288;2022-12-29T01:24:17;20.17;;;15.30;;
6422;SDS011;3244;42.708;23.288;2022-12-29T01:26:45;24.00;;;16.00;;
6422;SDS011;3244;42.708;23.288;2022-12-29T01:29:12;19.40;;;14.60;;
6422;SDS011;3244;42.708;23.288;2022-12-29T01:31:39;24.75;;;16.88;;
6422;SDS011;3244;42.708;23.288;2022-12-29T01:34:06;23.33;;;15.32;;
6422;SDS011;3244;42.708;23.288;2022-12-29T01:36:34;19.33;;;14.73;;
6422;SDS011;3244;42.708;23.288;2022-12-29T01:39:01;20.88;;;14.65;;
6422;SDS011;3244;42.708;23.288;2022-12-29T01:41:28;20.98;;;15.90;;
6422;SDS011;3244;42.708;23.288;2022-12-29T01:43:55;21.50;;;14.88;;
6422;SDS011;3244;42.708;23.288;2022-12-29T01:46:25;19.23;;;15.18;;
6422;SDS011;3244;42.708;23.288;2022-12-29T01:48:55;18.15;;;14.43;;
6422;SDS011;3244;42.708;23.288;2022-12-29T01:51:29;16.92;;;13.82;;
6422;SDS011;3244;42.708;23.288;2022-12-29T01:54:01;19.42;;;13.70;;
6422;SDS011;3244;42.708;23.288;2022-12-29T01:56:29;23.45;;;14.02;;
6422;SDS011;3244;42.708;23.288;2022-12-29T01:59:01;16.55;;;13.88;;
6422;SDS011;3244;42.708;23.288;2022-12-29T02:01:31;18.38;;;13.70;;
6422;SDS011;3244;42.708;23.288;2022-12-29T02:03:58;22.00;;;15.40;;
6422;SDS011;3244;42.708;23.288;2022-12-29T02:06:26;17.50;;;14.65;;
6422;SDS011;3244;42.708;23.288;2022-12-29T02:08:56;16.45;;;13.55;;
6422;SDS011;3244;42.708;23.288;2022-12-29T02:11:26;20.05;;;14.10;;
6422;SDS011;3244;42.708;23.288;2022-12-29T02:13:55;20.55;;;14.57;;
6422;SDS011;3244;42.708;23.288;2022-12-29T02:16:28;18.33;;;14.80;;
6422;SDS011;3244;42.708;23.288;2022-12-29T02:19:09;18.65;;;14.73;;
6422;SDS011;3244;42.708;23.288;2022-12-29T02:21:59;20.60;;;14.38;;
6422;SDS011;3244;42.708;23.288;2022-12-29T02:27:45;21.90;;;14.35;;
6422;SDS011;3244;42.708;23.288;2022-12-29T02:33:15;16.45;;;13.82;;
6422;SDS011;3244;42.708;23.288;2022-12-29T02:35:51;17.83;;;13.60;;
6422;SDS011;3244;42.708;23.288;2022-12-29T02:38:38;18.63;;;12.70;;
6422;SDS011;3244;42.708;23.288;2022-12-29T02:41:15;19.85;;;13.27;;
6422;SDS011;3244;42.708;23.288;2022-12-29T02:43:50;20.55;;;13.57;;
6422;SDS011;3244;42.708;23.288;2022-12-29T02:46:26;17.92;;;13.73;;
6422;SDS011;3244;42.708;23.288;2022-12-29T02:49:01;16.50;;;13.57;;
6422;SDS011;3244;42.708;23.288;2022-12-29T02:51:34;20.70;;;14.07;;
6422;SDS011;3244;42.708;23.288;2022-12-29T02:54:05;17.48;;;13.82;;
6422;SDS011;3244;42.708;23.288;2022-12-29T02:56:50;20.00;;;13.80;;
6422;SDS011;3244;42.708;23.288;2022-12-29T02:59:17;15.77;;;13.57;;
6422;SDS011;3244;42.708;23.288;2022-12-29T03:01:53;22.42;;;13.45;;
6422;SDS011;3244;42.708;23.288;2022-12-29T03:04:49;18.25;;;13.95;;
6422;SDS011;3244;42.708;23.288;2022-12-29T03:07:26;18.63;;;13.55;;
6422;SDS011;3244;42.708;23.288;2022-12-29T03:09:59;17.55;;;13.57;;
6422;SDS011;3244;42.708;23.288;2022-12-29T03:12:31;17.30;;;13.05;;
6422;SDS011;3244;42.708;23.288;2022-12-29T03:15:23;21.73;;;14.45;;
6422;SDS011;3244;42.708;23.288;2022-12-29T03:18:15;15.30;;;13.20;;
6422;SDS011;3244;42.708;23.288;2022-12-29T03:20:49;22.27;;;14.07;;
6422;SDS011;3244;42.708;23.288;2022-12-29T03:23:21;15.98;;;12.68;;
6422;SDS011;3244;42.708;23.288;2022-12-29T03:25:51;17.60;;;13.27;;
6422;SDS011;3244;42.708;23.288;2022-12-29T03:28:22;14.73;;;13.23;;
6422;SDS011;3244;42.708;23.288;2022-12-29T03:30:52;26.52;;;15.65;;
6422;SDS011;3244;42.708;23.288;2022-12-29T03:33:21;19.75;;;15.18;;
6422;SDS011;3244;42.708;23.288;2022-12-29T03:35:51;22.35;;;14.15;;
6422;SDS011;3244;42.708;23.288;2022-12-29T03:38:25;19.65;;;15.27;;
6422;SDS011;3244;42.708;23.288;2022-12-29T03:40:59;17.63;;;14.68;;
6422;SDS011;3244;42.708;23.288;2022-12-29T03:43:30;17.67;;;15.65;;
6422;SDS011;3244;42.708;23.288;2022-12-29T03:45:58;23.58;;;15.15;;
6422;SDS011;3244;42.708;23.288;2022-12-29T03:48:26;22.13;;;15.50;;
6422;SDS011;3244;42.708;23.288;2022-12-29T03:50:52;22.52;;;15.20;;
6422;SDS011;3244;42.708;23.288;2022-12-29T03:53:19;27.35;;;15.90;;
6422;SDS011;3244;42.708;23.288;2022-12-29T03:55:46;22.58;;;15.82;;
6422;SDS011;3244;42.708;23.288;2022-12-29T03:58:13;18.50;;;14.77;;
6422;SDS011;3244;42.708;23.288;2022-12-29T04:00:39;22.55;;;15.15;;
6422;SDS011;3244;42.708;23.288;2022-12-29T04:03:06;18.30;;;14.45;;
6422;SDS011;3244;42.708;23.288;2022-12-29T04:05:34;23.02;;;15.57;;
6422;SDS011;3244;42.708;23.288;2022-12-29T04:08:01;20.67;;;15.55;;
6422;SDS011;3244;42.708;23.288;2022-12-29T04:10:27;19.10;;;14.65;;
6422;SDS011;3244;42.708;23.288;2022-12-29T04:12:54;20.63;;;15.25;;
6422;SDS011;3244;42.708;23.288;2022-12-29T04:15:21;23.67;;;15.50;;
6422;SDS011;3244;42.708;23.288;2022-12-29T04:17:49;20.48;;;15.10;;
6422;SDS011;3244;42.708;23.288;2022-12-29T04:20:16;24.20;;;16.02;;
6422;SDS011;3244;42.708;23.288;2022-12-29T04:23:01;25.00;;;15.60;;
6422;SDS011;3244;42.708;23.288;2022-12-29T04:25:28;22.88;;;15.57;;
6422;SDS011;3244;42.708;23.288;2022-12-29T04:27:56;27.17;;;15.90;;
6422;SDS011;3244;42.708;23.288;2022-12-29T04:30:23;20.20;;;15.23;;
6422;SDS011;3244;42.708;23.288;2022-12-29T04:32:50;19.35;;;15.25;;
6422;SDS011;3244;42.708;23.288;2022-12-29T04:35:16;20.83;;;14.98;;
6422;SDS011;3244;42.708;23.288;2022-12-29T04:37:43;24.70;;;15.48;;
6422;SDS011;3244;42.708;23.288;2022-12-29T04:40:11;23.45;;;16.08;;
6422;SDS011;3244;42.708;23.288;2022-12-29T04:42:38;21.50;;;15.88;;
6422;SDS011;3244;42.708;23.288;2022-12-29T04:45:05;22.85;;;16.13;;
6422;SDS011;3244;42.708;23.288;2022-12-29T04:47:33;26.25;;;16.30;;
6422;SDS011;3244;42.708;23.288;2022-12-29T04:50:00;21.75;;;15.38;;
6422;SDS011;3244;42.708;23.288;2022-12-29T04:52:26;28.73;;;16.73;;
6422;SDS011;3244;42.708;23.288;2022-12-29T04:54:53;25.73;;;15.68;;
6422;SDS011;3244;42.708;23.288;2022-12-29T04:57:21;23.80;;;16.73;;
6422;SDS011;3244;42.708;23.288;2022-12-29T04:59:48;23.25;;;15.60;;
6422;SDS011;3244;42.708;23.288;2022-12-29T05:02:15;32.55;;;17.05;;
6422;SDS011;3244;42.708;23.288;2022-12-29T05:04:41;29.55;;;16.65;;
6422;SDS011;3244;42.708;23.288;2022-12-29T05:07:08;24.25;;;17.05;;
6422;SDS011;3244;42.708;23.288;2022-12-29T05:09:35;27.60;;;18.17;;
6422;SDS011;3244;42.708;23.288;2022-12-29T05:12:02;28.02;;;17.60;;
6422;SDS011;3244;42.708;23.288;2022-12-29T05:14:30;25.70;;;17.70;;
6422;SDS011;3244;42.708;23.288;2022-12-29T05:20:18;31.65;;;18.15;;
6422;SDS011;3244;42.708;23.288;2022-12-29T05:22:45;28.52;;;18.05;;
6422;SDS011;3244;42.708;23.288;2022-12-29T05:25:12;24.70;;;18.23;;
6422;SDS011;3244;42.708;23.288;2022-12-29T05:27:39;26.73;;;17.42;;
6422;SDS011;3244;42.708;23.288;2022-12-29T05:30:07;25.70;;;18.00;;
6422;SDS011;3244;42.708;23.288;2022-12-29T05:32:35;26.60;;;17.13;;
6422;SDS011;3244;42.708;23.288;2022-12-29T05:35:02;25.23;;;17.38;;
6422;SDS011;3244;42.708;23.288;2022-12-29T05:37:29;28.67;;;18.08;;
6422;SDS011;3244;42.708;23.288;2022-12-29T05:39:55;31.30;;;18.08;;
6422;SDS011;3244;42.708;23.288;2022-12-29T05:42:24;28.30;;;17.80;;
6422;SDS011;3244;42.708;23.288;2022-12-29T05:44:51;27.63;;;17.77;;
6422;SDS011;3244;42.708;23.288;2022-12-29T05:47:20;25.63;;;17.67;;
6422;SDS011;3244;42.708;23.288;2022-12-29T05:49:47;36.38;;;18.38;;
6422;SDS011;3244;42.708;23.288;2022-12-29T05:55:11;34.92;;;19.90;;
6422;SDS011;3244;42.708;23.288;2022-12-29T05:57:38;44.47;;;25.42;;
6422;SDS011;3244;42.708;23.288;2022-12-29T06:00:05;33.78;;;20.90;;
6422;SDS011;3244;42.708;23.288;2022-12-29T06:02:34;37.45;;;18.02;;
6422;SDS011;3244;42.708;23.288;2022-12-29T06:05:02;43.05;;;20.13;;
6422;SDS011;3244;42.708;23.288;2022-12-29T06:07:29;28.05;;;19.02;;
6422;SDS011;3244;42.708;23.288;2022-12-29T06:09:55;28.90;;;19.52;;
6422;SDS011;3244;42.708;23.288;2022-12-29T06:12:22;30.40;;;19.75;;
6422;SDS011;3244;42.708;23.288;2022-12-29T06:14:49;30.90;;;19.25;;
6422;SDS011;3244;42.708;23.288;2022-12-29T06:17:16;32.13;;;20.77;;
6422;SDS011;3244;42.708;23.288;2022-12-29T06:19:44;27.58;;;19.83;;
6422;SDS011;3244;42.708;23.288;2022-12-29T06:22:10;31.20;;;20.98;;
6422;SDS011;3244;42.708;23.288;2022-12-29T06:24:38;26.85;;;19.48;;
6422;SDS011;3244;42.708;23.288;2022-12-29T06:27:05;32.85;;;18.73;;
6422;SDS011;3244;42.708;23.288;2022-12-29T06:29:31;30.95;;;19.20;;
6422;SDS011;3244;42.708;23.288;2022-12-29T06:32:00;29.20;;;19.13;;
6422;SDS011;3244;42.708;23.288;2022-12-29T06:34:26;31.15;;;20.35;;
6422;SDS011;3244;42.708;23.288;2022-12-29T06:36:54;33.33;;;18.45;;
6422;SDS011;3244;42.708;23.288;2022-12-29T06:39:21;36.35;;;20.25;;
6422;SDS011;3244;42.708;23.288;2022-12-29T06:41:48;44.20;;;18.77;;
6422;SDS011;3244;42.708;23.288;2022-12-29T06:44:18;32.90;;;19.00;;
6422;SDS011;3244;42.708;23.288;2022-12-29T06:46:45;29.92;;;19.33;;
6422;SDS011;3244;42.708;23.288;2022-12-29T06:49:11;37.58;;;22.23;;
6422;SDS011;3244;42.708;23.288;2022-12-29T06:51:38;47.28;;;22.98;;
6422;SDS011;3244;42.708;23.288;2022-12-29T06:54:06;46.78;;;27.13;;
6422;SDS011;3244;42.708;23.288;2022-12-29T06:56:33;45.78;;;25.60;;
6422;SDS011;3244;42.708;23.288;2022-12-29T06:59:00;44.30;;;28.67;;
6422;SDS011;3244;42.708;23.288;2022-12-29T07:01:27;44.42;;;30.42;;
6422;SDS011;3244;42.708;23.288;2022-12-29T07:03:53;57.92;;;32.63;;
6422;SDS011;3244;42.708;23.288;2022-12-29T07:06:20;59.38;;;31.27;;
6422;SDS011;3244;42.708;23.288;2022-12-29T07:08:47;43.88;;;25.70;;
6422;SDS011;3244;42.708;23.288;2022-12-29T07:11:15;41.10;;;26.30;;
6422;SDS011;3244;42.708;23.288;2022-12-29T07:13:42;45.72;;;25.73;;
6422;SDS011;3244;42.708;23.288;2022-12-29T07:16:09;41.00;;;25.35;;
6422;SDS011;3244;42.708;23.288;2022-12-29T07:18:36;38.92;;;24.05;;
6422;SDS011;3244;42.708;23.288;2022-12-29T07:21:03;37.42;;;22.92;;
6422;SDS011;3244;42.708;23.288;2022-12-29T07:23:30;40.28;;;24.85;;
6422;SDS011;3244;42.708;23.288;2022-12-29T07:26:00;37.33;;;23.55;;
6422;SDS011;3244;42.708;23.288;2022-12-29T07:28:29;41.55;;;25.65;;
6422;SDS011;3244;42.708;23.288;2022-12-29T07:30:57;35.83;;;23.65;;
6422;SDS011;3244;42.708;23.288;2022-12-29T07:33:24;32.03;;;21.48;;
6422;SDS011;3244;42.708;23.288;2022-12-29T07:35:51;33.20;;;22.02;;
6422;SDS011;3244;42.708;23.288;2022-12-29T07:38:17;34.05;;;23.52;;
6422;SDS011;3244;42.708;23.288;2022-12-29T07:40:44;30.88;;;21.63;;
6422;SDS011;3244;42.708;23.288;2022-12-29T07:43:11;33.70;;;22.63;;
6422;SDS011;3244;42.708;23.288;2022-12-29T07:45:39;39.40;;;25.52;;
6422;SDS011;3244;42.708;23.288;2022-12-29T07:48:06;37.95;;;23.38;;
6422;SDS011;3244;42.708;23.288;2022-12-29T07:50:33;32.38;;;19.15;;
6422;SDS011;3244;42.708;23.288;2022-12-29T07:53:00;29.48;;;18.48;;
6422;SDS011;3244;42.708;23.288;2022-12-29T07:55:27;25.58;;;17.90;;
6422;SDS011;3244;42.708;23.288;2022-12-29T07:57:54;23.33;;;17.80;;
6422;SDS011;3244;42.708;23.288;2022-12-29T08:00:21;25.00;;;18.10;;
6422;SDS011;3244;42.708;23.288;2022-12-29T08:02:49;50.40;;;29.45;;
6422;SDS011;3244;42.708;23.288;2022-12-29T08:05:16;30.77;;;18.73;;
6422;SDS011;3244;42.708;23.288;2022-12-29T08:07:43;34.10;;;20.30;;
6422;SDS011;3244;42.708;23.288;2022-12-29T08:10:11;35.00;;;20.60;;
6422;SDS011;3244;42.708;23.288;2022-12-29T08:12:38;34.70;;;20.98;;
6422;SDS011;3244;42.708;23.288;2022-12-29T08:15:06;32.65;;;20.88;;
6422;SDS011;3244;42.708;23.288;2022-12-29T08:17:33;31.23;;;18.35;;
6422;SDS011;3244;42.708;23.288;2022-12-29T08:20:02;46.85;;;29.15;;
6422;SDS011;3244;42.708;23.288;2022-12-29T08:22:30;55.75;;;32.33;;
6422;SDS011;3244;42.708;23.288;2022-12-29T08:24:56;32.00;;;20.55;;
6422;SDS011;3244;42.708;23.288;2022-12-29T08:27:23;27.95;;;18.63;;
6422;SDS011;3244;42.708;23.288;2022-12-29T08:29:50;28.38;;;19.45;;
6422;SDS011;3244;42.708;23.288;2022-12-29T08:32:17;57.67;;;34.67;;
6422;SDS011;3244;42.708;23.288;2022-12-29T08:34:44;33.25;;;21.35;;
6422;SDS011;3244;42.708;23.288;2022-12-29T08:37:12;33.55;;;22.40;;
6422;SDS011;3244;42.708;23.288;2022-12-29T08:39:39;36.45;;;20.30;;
6422;SDS011;3244;42.708;23.288;2022-12-29T08:42:06;24.92;;;18.73;;
6422;SDS011;3244;42.708;23.288;2022-12-29T08:44:32;23.45;;;16.63;;
6422;SDS011;3244;42.708;23.288;2022-12-29T08:46:59;27.30;;;17.38;;
6422;SDS011;3244;42.708;23.288;2022-12-29T08:49:26;27.52;;;20.02;;
6422;SDS011;3244;42.708;23.288;2022-12-29T08:51:53;25.02;;;18.10;;
6422;SDS011;3244;42.708;23.288;2022-12-29T08:54:21;23.58;;;18.55;;
6422;SDS011;3244;42.708;23.288;2022-12-29T08:56:48;32.28;;;20.63;;
6422;SDS011;3244;42.708;23.288;2022-12-29T08:59:14;26.05;;;20.30;;
6422;SDS011;3244;42.708;23.288;2022-12-29T09:01:41;31.38;;;19.70;;
6422;SDS011;3244;42.708;23.288;2022-12-29T09:04:08;38.70;;;25.13;;
6422;SDS011;3244;42.708;23.288;2022-12-29T09:06:35;66.50;;;40.25;;
6422;SDS011;3244;42.708;23.288;2022-12-29T09:09:02;40.53;;;26.40;;
6422;SDS011;3244;42.708;23.288;2022-12-29T09:11:30;22.80;;;18.38;;
6422;SDS011;3244;42.708;23.288;2022-12-29T09:13:57;25.85;;;18.35;;
6422;SDS011;3244;42.708;23.288;2022-12-29T09:16:23;22.60;;;17.83;;
6422;SDS011;3244;42.708;23.288;2022-12-29T09:18:51;23.20;;;16.30;;
6422;SDS011;3244;42.708;23.288;2022-12-29T09:21:18;24.95;;;17.33;;
6422;SDS011;3244;42.708;23.288;2022-12-29T09:23:46;23.92;;;18.50;;
6422;SDS011;3244;42.708;23.288;2022-12-29T09:26:13;28.48;;;17.60;;
6422;SDS011;3244;42.708;23.288;2022-12-29T09:28:41;25.13;;;18.33;;
6422;SDS011;3244;42.708;23.288;2022-12-29T09:31:09;26.92;;;19.85;;
6422;SDS011;3244;42.708;23.288;2022-12-29T09:33:36;33.72;;;23.88;;
6422;SDS011;3244;42.708;23.288;2022-12-29T09:36:03;29.08;;;21.42;;
6422;SDS011;3244;42.708;23.288;2022-12-29T09:38:30;29.88;;;21.02;;
6422;SDS011;3244;42.708;23.288;2022-12-29T09:40:59;28.67;;;19.85;;
6422;SDS011;3244;42.708;23.288;2022-12-29T09:43:49;24.75;;;20.38;;
6422;SDS011;3244;42.708;23.288;2022-12-29T09:46:27;25.92;;;19.90;;
6422;SDS011;3244;42.708;23.288;2022-12-29T09:48:57;32.53;;;20.98;;
6422;SDS011;3244;42.708;23.288;2022-12-29T09:51:32;33.47;;;21.50;;
6422;SDS011;3244;42.708;23.288;2022-12-29T09:54:04;30.00;;;20.92;;
6422;SDS011;3244;42.708;23.288;2022-12-29T09:56:45;28.20;;;20.52;;
6422;SDS011;3244;42.708;23.288;2022-12-29T09:59:15;31.80;;;21.17;;
6422;SDS011;3244;42.708;23.288;2022-12-29T10:01:49;28.67;;;20.85;;
6422;SDS011;3244;42.708;23.288;2022-12-29T10:04:19;30.52;;;20.90;;
6422;SDS011;3244;42.708;23.288;2022-12-29T10:06:50;30.23;;;20.98;;
6422;SDS011;3244;42.708;23.288;2022-12-29T10:09:24;21.67;;;18.30;;
6422;SDS011;3244;42.708;23.288;2022-12-29T10:12:02;27.40;;;18.48;;
6422;SDS011;3244;42.708;23.288;2022-12-29T10:14:43;27.98;;;19.92;;
6422;SDS011;3244;42.708;23.288;2022-12-29T10:17:25;30.90;;;18.80;;
6422;SDS011;3244;42.708;23.288;2022-12-29T10:20:14;51.20;;;34.13;;
6422;SDS011;3244;42.708;23.288;2022-12-29T10:22:51;28.80;;;19.95;;
6422;SDS011;3244;42.708;23.288;2022-12-29T10:25:29;35.13;;;23.10;;
6422;SDS011;3244;42.708;23.288;2022-12-29T10:28:03;27.73;;;20.25;;
6422;SDS011;3244;42.708;23.288;2022-12-29T10:30:34;32.47;;;20.85;;
6422;SDS011;3244;42.708;23.288;2022-12-29T10:33:02;24.63;;;17.92;;
6422;SDS011;3244;42.708;23.288;2022-12-29T10:35:34;27.83;;;17.42;;
6422;SDS011;3244;42.708;23.288;2022-12-29T10:38:05;22.00;;;16.17;;
6422;SDS011;3244;42.708;23.288;2022-12-29T10:40:40;23.60;;;17.38;;
6422;SDS011;3244;42.708;23.288;2022-12-29T10:43:13;26.70;;;16.92;;
6422;SDS011;3244;42.708;23.288;2022-12-29T10:45:49;36.03;;;22.52;;
6422;SDS011;3244;42.708;23.288;2022-12-29T10:48:19;25.25;;;16.90;;
6422;SDS011;3244;42.708;23.288;2022-12-29T10:50:47;19.70;;;14.98;;
6422;SDS011;3244;42.708;23.288;2022-12-29T10:53:17;28.27;;;15.80;;
6422;SDS011;3244;42.708;23.288;2022-12-29T10:55:48;23.63;;;16.63;;
6422;SDS011;3244;42.708;23.288;2022-12-29T10:58:16;25.48;;;17.67;;
6422;SDS011;3244;42.708;23.288;2022-12-29T11:00:43;24.33;;;16.92;;
6422;SDS011;3244;42.708;23.288;2022-12-29T11:06:12;27.25;;;17.63;;
6422;SDS011;3244;42.708;23.288;2022-12-29T11:08:47;24.67;;;17.75;;
6422;SDS011;3244;42.708;23.288;2022-12-29T11:11:22;29.40;;;18.00;;
6422;SDS011;3244;42.708;23.288;2022-12-29T11:13:55;25.45;;;17.27;;
6422;SDS011;3244;42.708;23.288;2022-12-29T11:16:31;27.77;;;17.83;;
6422;SDS011;3244;42.708;23.288;2022-12-29T11:18:59;25.55;;;17.35;;
6422;SDS011;3244;42.708;23.288;2022-12-29T11:21:30;22.90;;;18.15;;
6422;SDS011;3244;42.708;23.288;2022-12-29T11:23:59;26.55;;;17.42;;
6422;SDS011;3244;42.708;23.288;2022-12-29T11:26:27;25.83;;;18.30;;
6422;SDS011;3244;42.708;23.288;2022-12-29T11:31:48;28.02;;;18.90;;
6422;SDS011;3244;42.708;23.288;2022-12-29T11:34:18;33.08;;;19.38;;
6422;SDS011;3244;42.708;23.288;2022-12-29T11:36:48;31.67;;;20.88;;
6422;SDS011;3244;42.708;23.288;2022-12-29T11:39:23;27.92;;;19.83;;
6422;SDS011;3244;42.708;23.288;2022-12-29T11:41:54;31.80;;;19.13;;
6422;SDS011;3244;42.708;23.288;2022-12-29T11:44:21;33.55;;;19.50;;
6422;SDS011;3244;42.708;23.288;2022-12-29T11:46:49;26.17;;;18.08;;
6422;SDS011;3244;42.708;23.288;2022-12-29T11:49:19;25.55;;;18.92;;
6422;SDS011;3244;42.708;23.288;2022-12-29T11:51:48;27.05;;;18.23;;
6422;SDS011;3244;42.708;23.288;2022-12-29T11:54:17;23.08;;;16.92;;
6422;SDS011;3244;42.708;23.288;2022-12-29T11:56:50;24.67;;;17.67;;
6422;SDS011;3244;42.708;23.288;2022-12-29T11:59:24;22.35;;;15.95;;
6422;SDS011;3244;42.708;23.288;2022-12-29T12:02:08;22.13;;;17.20;;
6422;SDS011;3244;42.708;23.288;2022-12-29T12:05:01;24.90;;;17.55;;
6422;SDS011;3244;42.708;23.288;2022-12-29T12:07:37;25.77;;;18.65;;
6422;SDS011;3244;42.708;23.288;2022-12-29T12:10:08;28.67;;;16.98;;
6422;SDS011;3244;42.708;23.288;2022-12-29T12:12:49;29.45;;;18.02;;
6422;SDS011;3244;42.708;23.288;2022-12-29T12:15:20;32.85;;;18.98;;
6422;SDS011;3244;42.708;23.288;2022-12-29T12:17:53;23.10;;;17.92;;
6422;SDS011;3244;42.708;23.288;2022-12-29T12:20:26;33.65;;;19.60;;
6422;SDS011;3244;42.708;23.288;2022-12-29T12:23:01;30.70;;;17.27;;
6422;SDS011;3244;42.708;23.288;2022-12-29T12:25:37;30.98;;;18.40;;
6422;SDS011;3244;42.708;23.288;2022-12-29T12:28:10;24.98;;;18.23;;
6422;SDS011;3244;42.708;23.288;2022-12-29T12:30:43;28.95;;;19.27;;
6422;SDS011;3244;42.708;23.288;2022-12-29T12:33:15;34.03;;;19.15;;
6422;SDS011;3244;42.708;23.288;2022-12-29T12:35:50;25.52;;;20.02;;
6422;SDS011;3244;42.708;23.288;2022-12-29T12:38:29;35.35;;;20.10;;
6422;SDS011;3244;42.708;23.288;2022-12-29T12:41:07;37.30;;;20.55;;
6422;SDS011;3244;42.708;23.288;2022-12-29T12:43:40;27.58;;;20.08;;
6422;SDS011;3244;42.708;23.288;2022-12-29T12:46:19;29.98;;;20.42;;
6422;SDS011;3244;42.708;23.288;2022-12-29T12:49:07;29.23;;;19.73;;
6422;SDS011;3244;42.708;23.288;2022-12-29T12:51:54;31.77;;;19.55;;
6422;SDS011;3244;42.708;23.288;2022-12-29T12:54:35;27.40;;;18.85;;
6422;SDS011;3244;42.708;23.288;2022-12-29T12:57:17;26.33;;;17.98;;
6422;SDS011;3244;42.708;23.288;2022-12-29T12:59:52;24.08;;;16.92;;
6422;SDS011;3244;42.708;23.288;2022-12-29T13:02:30;24.90;;;17.00;;
6422;SDS011;3244;42.708;23.288;2022-12-29T13:05:09;27.15;;;17.27;;
6422;SDS011;3244;42.708;23.288;2022-12-29T13:07:55;27.83;;;19.02;;
6422;SDS011;3244;42.708;23.288;2022-12-29T13:10:36;30.60;;;21.95;;
6422;SDS011;3244;42.708;23.288;2022-12-29T13:13:16;37.83;;;22.55;;
6422;SDS011;3244;42.708;23.288;2022-12-29T13:16:01;38.20;;;20.35;;
6422;SDS011;3244;42.708;23.288;2022-12-29T13:18:37;26.60;;;19.25;;
6422;SDS011;3244;42.708;23.288;2022-12-29T13:21:18;32.28;;;18.15;;
6422;SDS011;3244;42.708;23.288;2022-12-29T13:23:55;28.95;;;17.92;;
6422;SDS011;3244;42.708;23.288;2022-12-29T13:26:29;28.85;;;17.27;;
6422;SDS011;3244;42.708;23.288;2022-12-29T13:28:59;21.13;;;16.30;;
6422;SDS011;3244;42.708;23.288;2022-12-29T13:31:37;27.23;;;17.33;;
6422;SDS011;3244;42.708;23.288;2022-12-29T13:34:11;21.35;;;15.98;;
6422;SDS011;3244;42.708;23.288;2022-12-29T13:36:49;28.15;;;16.05;;
6422;SDS011;3244;42.708;23.288;2022-12-29T13:39:21;30.70;;;16.90;;
6422;SDS011;3244;42.708;23.288;2022-12-29T13:41:51;21.85;;;16.83;;
6422;SDS011;3244;42.708;23.288;2022-12-29T13:44:20;22.23;;;16.58;;
6422;SDS011;3244;42.708;23.288;2022-12-29T13:46:51;24.05;;;15.63;;
6422;SDS011;3244;42.708;23.288;2022-12-29T13:49:21;29.13;;;17.02;;
6422;SDS011;3244;42.708;23.288;2022-12-29T13:51:51;25.17;;;15.90;;
6422;SDS011;3244;42.708;23.288;2022-12-29T13:54:30;24.05;;;16.38;;
6422;SDS011;3244;42.708;23.288;2022-12-29T13:57:06;25.38;;;16.35;;
6422;SDS011;3244;42.708;23.288;2022-12-29T13:59:38;23.80;;;16.25;;
6422;SDS011;3244;42.708;23.288;2022-12-29T14:02:17;26.10;;;16.92;;
6422;SDS011;3244;42.708;23.288;2022-12-29T14:04:56;23.42;;;15.98;;
6422;SDS011;3244;42.708;23.288;2022-12-29T14:07:26;24.83;;;16.85;;
6422;SDS011;3244;42.708;23.288;2022-12-29T14:09:53;35.72;;;17.23;;
6422;SDS011;3244;42.708;23.288;2022-12-29T14:12:27;29.83;;;17.77;;
6422;SDS011;3244;42.708;23.288;2022-12-29T14:15:02;27.95;;;17.65;;
6422;SDS011;3244;42.708;23.288;2022-12-29T14:17:32;27.50;;;18.17;;
6422;SDS011;3244;42.708;23.288;2022-12-29T14:19:59;26.20;;;18.30;;
6422;SDS011;3244;42.708;23.288;2022-12-29T14:22:27;32.08;;;18.50;;
6422;SDS011;3244;42.708;23.288;2022-12-29T14:24:54;26.95;;;17.70;;
6422;SDS011;3244;42.708;23.288;2022-12-29T14:33:13;35.03;;;20.23;;
6422;SDS011;3244;42.708;23.288;2022-12-29T14:35:42;26.80;;;20.00;;
6422;SDS011;3244;42.708;23.288;2022-12-29T14:38:16;33.60;;;21.10;;
6422;SDS011;3244;42.708;23.288;2022-12-29T14:40:45;32.97;;;20.48;;
6422;SDS011;3244;42.708;23.288;2022-12-29T14:43:14;34.05;;;21.42;;
6422;SDS011;3244;42.708;23.288;2022-12-29T14:45:51;39.42;;;22.58;;
6422;SDS011;3244;42.708;23.288;2022-12-29T14:48:30;38.72;;;21.98;;
6422;SDS011;3244;42.708;23.288;2022-12-29T14:51:10;34.10;;;23.75;;
6422;SDS011;3244;42.708;23.288;2022-12-29T14:53:49;37.88;;;22.58;;
6422;SDS011;3244;42.708;23.288;2022-12-29T14:56:17;35.75;;;22.15;;
6422;SDS011;3244;42.708;23.288;2022-12-29T14:58:47;35.88;;;22.48;;
6422;SDS011;3244;42.708;23.288;2022-12-29T15:01:20;38.00;;;21.00;;
6422;SDS011;3244;42.708;23.288;2022-12-29T15:03:51;38.53;;;22.42;;
6422;SDS011;3244;42.708;23.288;2022-12-29T15:06:22;35.38;;;21.05;;
6422;SDS011;3244;42.708;23.288;2022-12-29T15:08:54;34.78;;;21.65;;
6422;SDS011;3244;42.708;23.288;2022-12-29T15:11:31;29.55;;;20.40;;
6422;SDS011;3244;42.708;23.288;2022-12-29T15:16:58;33.83;;;22.13;;
6422;SDS011;3244;42.708;23.288;2022-12-29T15:19:26;37.30;;;20.65;;
6422;SDS011;3244;42.708;23.288;2022-12-29T15:21:53;37.75;;;22.77;;
6422;SDS011;3244;42.708;23.288;2022-12-29T15:24:23;36.47;;;20.98;;